Time;durP1;ratioP1;P1;durP2;ratioP2;P2;SDS_P1;SDS_P2;PMS_P1;PMS_P2;Temp;Humidity;BMP_temperature;BMP_pressure;BME280_temperature;BME280_humidity;BME280_pressure;Samples;Min_cycle;Max_cycle;Signal;HPM_P1;HPM_P2
2022/02/09 00:04:11;;;;;;;0.63;0.40;;;;;;;0.71;65.90;98487.31;5134823;27;20046;-42
2022/02/09 00:09:35;;;;;;;0.90;0.30;;;;;;;0.87;65.59;98490.50;5110289;27;20058;-41
2022/02/09 00:12:07;;;;;;;2.72;0.30;;;;;;;0.75;64.98;98477.88;5133408;27;20050;-42
2022/02/09 01:56:09;;;;;;;0.50;0.30;;;;;;;1.41;61.60;98487.94;5112652;27;20038;-42
2022/02/09 01:58:34;;;;;;;2.60;0.90;;;;;;;1.28;62.03;98490.69;5113450;27;20051;-41
2022/02/09 02:01:00;;;;;;;1.27;0.60;;;;;;;1.27;62.38;98494.13;5113230;27;20039;-42
2022/02/09 02:03:27;;;;;;;1.20;0.60;;;;;;;1.11;62.50;98468.78;5132133;27;20072;-42
2022/02/09 02:05:55;;;;;;;0.85;0.50;;;;;;;1.24;62.50;98490.78;5132076;27;20406;-41
2022/02/09 02:08:22;;;;;;;1.20;0.60;;;;;;;1.13;62.33;98493.50;5113900;27;20051;-42
2022/02/09 02:18:56;;;;;;;1.77;1.00;;;;;;;1.05;63.13;98486.78;5110827;27;20040;-43
2022/02/09 02:21:50;;;;;;;1.65;0.80;;;;;;;1.06;63.26;98488.50;5113952;27;20095;-42
2022/02/09 02:47:53;;;;;;;3.88;1.00;;;;;;;0.98;63.63;98509.09;5130441;27;20066;-43
2022/02/09 03:14:22;;;;;;;1.80;1.00;;;;;;;0.83;65.09;98502.50;5131135;28;20125;-41
2022/02/09 03:17:02;;;;;;;2.95;1.00;;;;;;;0.77;65.62;98501.72;5112961;28;20051;-42
2022/02/09 03:54:09;;;;;;;2.03;0.98;;;;;;;0.46;65.43;98487.69;5112659;28;20038;-41
2022/02/09 03:59:06;;;;;;;2.10;0.98;;;;;;;0.53;64.77;98495.22;5130662;27;19920;-45
2022/02/09 04:01:36;;;;;;;1.27;1.05;;;;;;;0.60;64.94;98509.63;5130567;27;20046;-42
2022/02/09 04:04:01;;;;;;;;;;;;;;;0.65;65.37;98514.69;5134250;27;20126;-42
2022/02/09 04:06:33;;;;;;;1.75;1.00;;;;;;;0.67;64.89;98516.38;5134649;27;20053;-41
2022/02/09 04:09:00;;;;;;;1.58;0.70;;;;;;;0.64;64.20;98512.97;5134002;27;20043;-41
2022/02/09 04:11:38;;;;;;;1.52;0.93;;;;;;;0.65;63.86;98507.00;5133924;27;20072;-43
2022/02/09 04:20:01;;;;;;;1.70;0.90;;;;;;;0.69;62.84;98493.31;5133957;27;20129;-42
2022/02/09 04:38:32;;;;;;;1.85;0.80;;;;;;;1.13;60.24;98508.88;5133446;27;20046;-42
2022/02/09 04:43:46;;;;;;;2.70;1.23;;;;;;;1.18;60.04;98513.91;5133210;27;20038;-42
2022/02/09 04:54:43;;;;;;;0.80;0.57;;;;;;;1.57;60.42;98517.53;5133623;27;20183;-42
2022/02/09 04:57:17;;;;;;;1.17;0.45;;;;;;;1.55;59.73;98524.41;5133066;27;20050;-42
2022/02/09 05:28:31;;;;;;;2.47;0.98;;;;;;;1.91;58.47;98516.06;5132712;27;20529;-42
2022/02/09 05:30:57;;;;;;;1.58;0.75;;;;;;;1.95;58.47;98516.84;5132384;27;20507;-43
2022/02/09 05:33:23;;;;;;;2.90;0.98;;;;;;;1.82;58.13;98494.88;5113340;27;20086;-42
2022/02/09 05:35:49;;;;;;;1.20;0.77;;;;;;;1.89;58.18;98525.47;5113981;27;20062;-43
2022/02/09 05:38:16;;;;;;;1.23;0.60;;;;;;;1.91;58.39;98521.19;5132507;27;20129;-42
2022/02/09 05:40:44;;;;;;;3.30;0.85;;;;;;;1.99;58.26;98521.06;5130575;27;20130;-42
2022/02/09 05:43:11;;;;;;;1.33;0.82;;;;;;;1.74;58.14;98518.06;5132281;27;20038;-42
2022/02/09 05:51:04;;;;;;;2.40;0.90;;;;;;;1.53;58.58;98532.09;5123485;27;19919;-42
2022/02/09 05:57:12;;;;;;;5.53;1.45;;;;;;;1.40;59.25;98534.91;5097254;27;20510;-42
2022/02/09 05:59:27;;;;;;;3.33;1.20;;;;;;;1.34;60.11;98529.88;5109658;27;20509;-41
2022/02/09 06:01:51;;;;;;;2.40;1.10;;;;;;;1.25;60.67;98533.44;5131936;27;20035;-42
2022/02/09 06:04:17;;;;;;;2.67;1.13;;;;;;;1.26;60.79;98535.09;5113167;27;20109;-42
2022/02/09 06:06:43;;;;;;;2.95;1.52;;;;;;;1.28;60.54;98539.34;5131609;27;20387;-42
2022/02/09 06:09:10;;;;;;;1.95;0.93;;;;;;;1.27;60.47;98542.75;5125734;27;20053;-42
2022/02/09 06:22:10;;;;;;;4.07;1.63;;;;;;;1.45;60.55;98540.78;5112206;27;20118;-43
2022/02/09 06:24:38;;;;;;;3.70;1.95;;;;;;;1.59;60.49;98542.25;5131249;27;20510;-42
2022/02/09 06:27:05;;;;;;;3.28;2.03;;;;;;;1.60;60.79;98541.38;5124929;27;20039;-43
2022/02/09 06:29:31;;;;;;;4.50;1.92;;;;;;;1.57;60.76;98551.66;5130608;27;20035;-43
2022/02/09 06:31:57;;;;;;;4.65;1.73;;;;;;;1.59;61.12;98551.63;5125933;27;20130;-43
2022/02/09 06:34:23;;;;;;;5.55;1.85;;;;;;;1.60;61.02;98555.91;5126884;27;20035;-43
2022/02/09 06:37:00;;;;;;;5.28;2.15;;;;;;;1.63;61.39;98555.84;5131120;27;20042;-42
2022/02/09 06:39:28;;;;;;;3.28;1.63;;;;;;;1.60;60.93;98561.88;5114885;27;20073;-43
2022/02/09 06:41:54;;;;;;;4.47;2.13;;;;;;;1.52;61.27;98570.53;5131210;27;20035;-42
2022/02/09 06:44:20;;;;;;;4.75;2.00;;;;;;;1.46;61.40;98566.38;5112689;27;20129;-44
2022/02/09 06:46:46;;;;;;;4.93;1.90;;;;;;;1.52;61.51;98565.41;5130265;27;20520;-44
2022/02/09 06:49:12;;;;;;;2.33;1.73;;;;;;;1.59;61.96;98564.44;5133702;27;20043;-42
2022/02/09 06:51:39;;;;;;;5.40;2.05;;;;;;;1.60;61.80;98572.13;5097168;28;20119;-42
2022/02/09 06:54:14;;;;;;;3.42;1.60;;;;;;;1.53;62.28;98575.63;5111867;28;20049;-44
2022/02/09 06:59:28;;;;;;;3.65;2.03;;;;;;;1.47;62.71;98555.25;5131094;27;20085;-44
2022/02/09 07:01:54;;;;;;;4.22;2.35;;;;;;;1.50;62.83;98556.91;5133023;27;20066;-43
2022/02/09 07:04:20;;;;;;;6.55;2.20;;;;;;;1.67;62.82;98580.56;5132484;27;20038;-43
2022/02/09 07:06:46;;;;;;;4.15;2.50;;;;;;;1.60;62.73;98548.22;5138508;27;20031;-43
2022/02/09 07:09:12;;;;;;;4.47;2.10;;;;;;;1.76;62.63;98559.03;5141216;27;20038;-43
2022/02/09 07:11:37;;;;;;;3.47;2.15;;;;;;;1.94;62.48;98571.53;5121037;27;20035;-43
2022/02/09 07:14:04;;;;;;;4.97;2.17;;;;;;;2.06;62.48;98576.44;5139507;27;20407;-44
2022/02/09 07:16:30;;;;;;;3.22;2.00;;;;;;;2.07;62.11;98584.09;5139430;27;20039;-46
2022/02/09 07:18:56;;;;;;;4.18;2.47;;;;;;;2.10;61.94;98575.50;5096804;28;20399;-44
2022/02/09 07:21:29;;;;;;;2.88;1.60;;;;;;;2.22;61.02;98593.22;5108078;28;20047;-45
2022/02/09 07:23:58;;;;;;;4.38;2.42;;;;;;;2.45;61.05;98587.69;5119026;27;20472;-43
2022/02/09 07:26:29;;;;;;;4.43;1.90;;;;;;;2.79;59.11;98562.16;5133543;27;20094;-45
2022/02/09 07:28:56;;;;;;;3.15;2.00;;;;;;;2.96;58.86;98584.03;5140956;27;20050;-48
2022/02/09 07:31:22;;;;;;;3.40;2.08;;;;;;;3.89;57.18;98579.28;5120547;27;20522;-47
2022/02/09 07:33:48;;;;;;;3.67;1.83;;;;;;;3.78;56.84;98573.56;5120895;27;20035;-45
2022/02/09 07:36:16;;;;;;;4.97;2.17;;;;;;;4.69;55.98;98563.41;5121164;27;20036;-46
2022/02/09 07:38:42;;;;;;;7.47;2.28;;;;;;;6.03;53.72;98584.97;5143270;27;20394;-46
2022/02/09 07:41:08;;;;;;;6.22;2.30;;;;;;;7.12;51.21;98587.03;5143951;27;20039;-45
2022/02/09 07:49:11;;;;;;;3.38;2.08;;;;;;;9.99;45.24;98590.00;5126190;27;20046;-47
2022/02/09 07:51:53;;;;;;;3.55;2.20;;;;;;;10.61;43.21;98594.63;5140619;27;20504;-47
2022/02/09 07:54:21;;;;;;;3.60;2.20;;;;;;;11.12;40.37;98592.78;5142298;27;20080;-46
2022/02/09 07:56:47;;;;;;;4.20;2.05;;;;;;;11.26;39.20;98595.47;5143385;27;20559;-46
2022/02/09 07:59:15;;;;;;;3.63;1.90;;;;;;;11.06;39.17;98598.31;5144088;27;20046;-46
2022/02/09 08:01:42;;;;;;;2.55;1.92;;;;;;;10.88;39.66;98587.16;5144387;27;20142;-47
2022/02/09 08:04:08;;;;;;;4.40;2.20;;;;;;;11.18;39.31;98592.47;5143363;27;20545;-49
2022/02/09 08:06:35;;;;;;;3.67;1.90;;;;;;;11.24;37.55;98594.75;5109116;27;20058;-48
2022/02/09 08:09:08;;;;;;;3.22;1.92;;;;;;;11.67;35.90;98594.97;5143753;27;20510;-46
2022/02/09 08:11:46;;;;;;;2.35;1.70;;;;;;;11.67;35.23;98592.38;5141434;27;20066;-48
2022/02/09 08:33:16;;;;;;;5.47;2.60;;;;;;;14.97;30.38;98591.50;5142642;27;20050;-48
2022/02/09 08:35:44;;;;;;;4.60;2.78;;;;;;;15.13;30.43;98584.25;5125304;27;20065;-47
2022/02/09 08:38:10;;;;;;;4.82;2.22;;;;;;;15.39;29.97;98579.78;5123027;27;20038;-47
2022/02/09 08:40:36;;;;;;;3.03;1.92;;;;;;;15.74;28.57;98581.69;5144194;27;20035;-47
2022/02/09 08:43:03;;;;;;;3.08;1.98;;;;;;;15.73;29.11;98585.25;5142913;27;20050;-51
2022/02/09 08:45:29;;;;;;;1.63;1.30;;;;;;;15.22;28.65;98585.41;5125613;27;20365;-48
2022/02/09 08:47:56;;;;;;;2.75;1.90;;;;;;;14.94;29.60;98583.03;5142081;27;20129;-51
2022/02/09 08:50:22;;;;;;;2.67;1.85;;;;;;;16.05;28.97;98587.19;5142524;27;20038;-49
2022/02/09 08:52:48;;;;;;;1.98;1.60;;;;;;;15.71;28.44;98574.88;5144027;27;20034;-48
2022/02/09 08:55:14;;;;;;;1.92;1.60;;;;;;;15.09;28.17;98580.19;5142546;27;20038;-48
2022/02/09 08:57:40;;;;;;;2.20;1.85;;;;;;;14.21;29.02;98582.78;5124735;27;20081;-47
2022/02/09 09:00:17;;;;;;;2.83;1.70;;;;;;;12.81;30.37;98573.47;5122606;27;20063;-50
2022/02/09 09:02:47;;;;;;;3.35;1.40;;;;;;;11.95;31.25;98584.69;5141042;27;20035;-48
2022/02/09 09:05:21;;;;;;;3.47;1.80;;;;;;;11.04;32.86;98593.19;5139718;27;20386;-46
2022/02/09 09:07:53;;;;;;;4.32;1.73;;;;;;;11.20;33.40;98595.00;5124654;27;20048;-48
2022/02/09 09:10:28;;;;;;;2.85;1.20;;;;;;;12.04;32.00;98591.97;5108355;27;20043;-47
2022/02/09 10:04:35;;;;;;;2.45;1.30;;;;;;;17.23;25.77;98560.63;5131748;27;20066;-49
2022/02/09 10:35:26;;;;;;;2.03;1.67;;;;;;;9.47;36.02;98560.56;5112676;27;20046;-47
2022/02/09 10:37:53;;;;;;;2.05;1.40;;;;;;;9.55;35.79;98553.22;5113827;27;20418;-46
2022/02/09 10:40:45;;;;;;;4.03;1.60;;;;;;;9.45;36.23;98556.34;5112327;27;20118;-49
2022/02/09 10:43:29;;;;;;;2.72;1.70;;;;;;;9.35;36.57;98564.56;5111975;27;20505;-46
2022/02/09 10:46:08;;;;;;;3.30;1.48;;;;;;;9.45;36.79;98559.78;5095673;27;20042;-47
2022/02/09 10:48:38;;;;;;;4.07;2.00;;;;;;;9.03;37.71;98541.88;5112163;27;20052;-46
2022/02/09 10:51:37;;;;;;;4.03;1.50;;;;;;;8.30;38.66;98555.53;5131172;27;20043;-48
2022/02/09 10:54:18;;;;;;;6.78;1.73;;;;;;;7.82;39.52;98558.41;5110774;28;20036;-50
2022/02/09 10:56:44;;;;;;;2.38;1.58;;;;;;;8.25;38.95;98570.41;5120813;27;20042;-49
2022/02/09 10:59:12;;;;;;;2.13;1.45;;;;;;;8.79;38.33;98567.16;5127527;27;20118;-46
2022/02/09 11:01:39;;;;;;;2.88;1.83;;;;;;;8.92;38.05;98570.03;5109127;28;20506;-49
2022/02/09 11:04:06;;;;;;;4.38;1.88;;;;;;;9.97;37.43;98567.59;5112087;28;20134;-47
2022/02/09 11:06:34;;;;;;;3.15;1.70;;;;;;;11.42;35.54;98564.25;5107207;28;20156;-50
2022/02/09 11:09:05;;;;;;;3.40;1.60;;;;;;;12.65;34.16;98539.69;5110955;28;20550;-48
2022/02/09 11:11:33;;;;;;;4.10;1.73;;;;;;;12.98;32.43;98562.00;5131273;27;20039;-48
2022/02/09 11:13:59;;;;;;;1.73;1.40;;;;;;;12.62;32.34;98565.91;5134870;27;20533;-48
2022/02/09 11:16:26;;;;;;;3.17;1.65;;;;;;;12.25;33.05;98566.44;5116367;27;20455;-48
2022/02/09 11:18:54;;;;;;;1.98;1.55;;;;;;;11.85;33.45;98563.56;5115344;27;20038;-48
2022/02/09 11:21:26;;;;;;;2.70;1.52;;;;;;;11.14;34.49;98559.75;5133439;27;20031;-48
2022/02/09 11:23:55;;;;;;;4.90;1.80;;;;;;;11.01;34.45;98549.16;5133575;27;20461;-47
2022/02/09 11:26:41;;;;;;;4.15;1.60;;;;;;;10.51;35.55;98557.06;5114758;27;20031;-49
2022/02/09 11:29:20;;;;;;;5.25;1.98;;;;;;;10.47;36.03;98563.31;5120428;27;20137;-47
2022/02/09 11:32:06;;;;;;;3.08;1.70;;;;;;;10.49;35.92;98568.44;5133218;27;20498;-51
2022/02/09 11:37:29;;;;;;;2.20;1.70;;;;;;;10.01;36.46;98554.41;5132099;27;20038;-49
2022/02/09 11:39:58;;;;;;;3.28;1.60;;;;;;;10.15;36.63;98564.91;5130851;27;20035;-48
2022/02/09 11:42:27;;;;;;;1.95;1.48;;;;;;;10.12;36.28;98548.66;5098519;27;20058;-48
2022/02/09 11:56:27;;;;;;;3.80;1.85;;;;;;;9.43;37.88;98551.22;5108647;27;20142;-49
2022/02/09 11:58:51;;;;;;;2.67;1.60;;;;;;;9.13;38.21;98570.81;5125737;27;20426;-47
2022/02/09 12:12:02;;;;;;;1.70;1.30;;;;;;;7.79;41.54;98574.06;5133513;27;20110;-48
2022/02/09 12:20:00;;;;;;;2.60;2.00;;;;;;;7.19;42.92;98595.41;5102383;27;20043;-48
2022/02/09 12:22:26;;;;;;;3.40;1.77;;;;;;;7.06;43.05;98594.22;5114485;27;20391;-50
2022/02/09 12:24:56;;;;;;;3.65;1.77;;;;;;;6.74;43.82;98595.41;5113376;27;20042;-50
2022/02/09 12:27:22;;;;;;;4.20;1.75;;;;;;;6.25;45.29;98591.09;5132824;27;20046;-50
2022/02/09 12:29:59;;;;;;;3.22;1.90;;;;;;;6.35;45.05;98589.91;5114520;27;20050;-48
2022/02/09 12:32:28;;;;;;;3.25;1.70;;;;;;;6.35;45.12;98593.31;5113490;27;20039;-47
2022/02/09 12:34:57;;;;;;;;;;;;;;;6.32;45.71;98598.59;5132450;27;20035;-47
2022/02/09 12:37:25;;;;;;;5.20;2.20;;;;;;;6.13;45.75;98594.94;5133933;27;19915;-47
2022/02/09 12:40:08;;;;;;;3.00;1.85;;;;;;;5.88;46.77;98581.19;5089849;27;20035;-47
2022/02/09 12:42:39;;;;;;;4.10;1.88;;;;;;;5.86;46.54;98594.09;5133623;27;20084;-47
2022/02/09 12:45:16;;;;;;;3.63;1.95;;;;;;;5.97;46.83;98589.47;5115608;27;20039;-47
2022/02/09 12:47:46;;;;;;;6.15;2.50;;;;;;;6.06;47.17;98596.06;5115912;27;20086;-46
2022/02/09 12:50:16;;;;;;;8.07;2.70;;;;;;;5.81;47.20;98592.59;5132165;27;20107;-47
2022/02/09 12:52:44;;;;;;;6.43;2.17;;;;;;;5.52;48.29;98589.19;5111310;27;20038;-48
2022/02/09 12:55:13;;;;;;;4.68;2.10;;;;;;;5.35;48.42;98591.44;5113899;27;20035;-48
2022/02/09 12:57:43;;;;;;;3.90;2.05;;;;;;;5.20;48.69;98604.78;5105442;27;20043;-54
2022/02/09 13:00:44;;;;;;;5.70;2.10;;;;;;;5.22;49.04;98602.19;5080505;27;20067;-47
2022/02/09 13:03:21;;;;;;;3.35;2.13;;;;;;;5.29;49.33;98603.66;5122672;27;20058;-48
2022/02/09 13:05:57;;;;;;;4.15;2.10;;;;;;;5.19;49.66;98621.13;5121941;27;20035;-47
2022/02/09 13:08:26;;;;;;;4.03;2.33;;;;;;;5.06;49.74;98620.66;5096658;27;20130;-47
2022/02/09 13:11:49;;;;;;;4.60;2.30;;;;;;;5.20;49.28;98612.53;5092288;28;20039;-48
2022/02/09 13:13:54;;;;;;;4.10;1.90;;;;;;;5.27;49.14;98610.63;5109622;27;20043;-49
2022/02/09 14:14:55;;;;;;;7.30;3.35;;;;;;;3.47;55.56;98604.28;5119367;27;20054;-48
2022/02/09 14:17:12;;;;;;;8.40;3.95;;;;;;;3.50;56.10;98616.25;5105971;27;20043;-47
2022/02/09 14:55:27;;;;;;;9.68;3.33;;;;;;;2.64;60.75;98647.16;5130178;27;20034;-51
2022/02/09 15:00:37;;;;;;;6.03;2.55;;;;;;;2.67;61.08;98642.00;5126864;28;20500;-49
2022/02/09 15:03:18;;;;;;;4.30;2.88;;;;;;;2.69;61.01;98647.91;5110803;28;20132;-52
2022/02/09 15:08:26;;;;;;;12.18;3.78;;;;;;;2.66;61.02;98642.84;5110981;28;20087;-47
2022/02/09 15:13:38;;;;;;;7.22;2.65;;;;;;;2.58;61.88;98649.84;5098005;28;20042;-48
2022/02/09 15:16:24;;;;;;;6.45;3.28;;;;;;;2.57;62.29;98641.28;5106732;28;20097;-53
2022/02/09 15:22:07;;;;;;;6.97;3.25;;;;;;;2.48;62.88;98649.16;5019862;28;20049;-51
2022/02/09 15:24:39;;;;;;;5.38;2.55;;;;;;;2.45;63.52;98654.38;5089931;28;20070;-49
2022/02/09 15:27:07;;;;;;;8.48;3.10;;;;;;;2.36;64.06;98642.53;5130810;27;20047;-51
2022/02/09 15:29:37;;;;;;;8.60;3.78;;;;;;;2.36;64.80;98657.06;5104975;28;20567;-47
2022/02/09 15:32:11;;;;;;;7.55;3.28;;;;;;;2.21;65.25;98652.22;5095026;28;20035;-53
2022/02/09 15:35:03;;;;;;;10.73;4.00;;;;;;;2.09;66.18;98661.81;5102034;28;20031;-48
2022/02/09 15:40:21;;;;;;;14.32;4.32;;;;;;;1.95;67.96;98661.19;5091236;28;20398;-52
2022/02/09 15:56:46;;;;;;;7.95;4.15;;;;;;;1.91;69.84;98668.97;5108199;28;20039;-54
2022/02/09 16:10:18;;;;;;;6.78;3.60;;;;;;;1.81;70.99;98670.84;5081585;28;20514;-45
2022/02/09 16:23:45;;;;;;;7.90;3.20;;;;;;;1.50;72.64;98656.78;5133033;27;20039;-49
2022/02/09 16:33:11;;;;;;;6.65;4.00;;;;;;;1.53;72.57;98646.50;5098419;27;20125;-47
2022/02/09 16:45:15;;;;;;;10.13;4.45;;;;;;;1.73;73.48;98664.97;5118159;27;20062;-46
2022/02/09 16:48:01;;;;;;;8.07;3.40;;;;;;;1.72;73.82;98676.09;5131907;27;20042;-49
2022/02/09 16:50:47;;;;;;;9.35;4.70;;;;;;;1.67;73.87;98667.66;5100230;27;20062;-44
2022/02/09 16:53:46;;;;;;;11.02;4.75;;;;;;;1.72;74.35;98672.69;5115937;27;20039;-45
2022/02/09 17:20:36;;;;;;;7.85;4.35;;;;;;;1.92;74.08;98678.34;5118264;27;20041;-46
2022/02/09 17:23:04;;;;;;;10.02;4.88;;;;;;;1.93;74.28;98670.66;5101050;27;20039;-48
2022/02/09 17:25:31;;;;;;;8.40;3.72;;;;;;;1.84;74.18;98652.84;5064304;28;20038;-48
2022/02/09 17:27:57;;;;;;;9.25;4.47;;;;;;;1.92;74.45;98662.97;5111215;27;20051;-45
2022/02/09 17:33:15;;;;;;;9.65;3.65;;;;;;;1.86;74.91;98670.75;5114333;27;20043;-50
2022/02/09 17:35:50;;;;;;;8.20;3.97;;;;;;;1.87;75.17;98672.47;5113416;27;20411;-50
2022/02/09 17:38:29;;;;;;;8.23;4.40;;;;;;;1.89;75.07;98666.41;5137903;27;20062;-46
2022/02/09 18:00:14;;;;;;;7.68;4.20;;;;;;;2.24;73.16;98665.84;5093605;28;20503;-50
2022/02/09 18:02:41;;;;;;;10.40;4.30;;;;;;;2.29;73.34;98671.75;5110606;27;20081;-51
2022/02/09 18:05:16;;;;;;;5.85;3.58;;;;;;;2.24;73.31;98645.34;5114361;27;20043;-57
2022/02/09 18:07:45;;;;;;;6.32;3.67;;;;;;;2.31;73.05;98669.13;5098131;27;20038;-52
2022/02/09 18:29:40;;;;;;;6.68;3.95;;;;;;;2.37;72.70;98676.72;5073496;27;20044;-49
2022/02/09 18:45:29;;;;;;;7.65;3.85;;;;;;;2.02;73.72;98667.94;5112556;27;20070;-58
2022/02/09 19:03:40;;;;;;;6.03;3.92;;;;;;;2.00;74.59;98686.75;5087944;28;20047;-53
2022/02/09 19:06:22;;;;;;;8.40;3.70;;;;;;;2.11;74.50;98678.03;5088702;28;20097;-51
2022/02/09 19:14:48;;;;;;;8.65;4.32;;;;;;;2.21;73.76;98683.84;5083249;28;20039;-50
2022/02/09 19:17:25;;;;;;;7.63;4.40;;;;;;;2.25;73.63;98684.66;5086833;28;20139;-52
2022/02/09 19:20:09;;;;;;;7.93;3.85;;;;;;;2.31;73.74;98684.53;5071211;28;20036;-51
2022/02/09 19:31:18;;;;;;;7.32;4.22;;;;;;;2.50;73.15;98688.47;5059783;28;20040;-52
2022/02/09 19:47:06;;;;;;;7.40;4.70;;;;;;;2.31;72.73;98657.16;5074219;28;20047;-52
2022/02/09 19:50:27;;;;;;;7.60;4.30;;;;;;;2.48;72.58;98682.50;5106286;28;20044;-54
2022/02/09 19:52:37;;;;;;;6.25;4.35;;;;;;;2.64;72.31;98680.50;5090431;28;20111;-53
2022/02/09 19:57:35;;;;;;;7.22;4.05;;;;;;;2.58;72.30;98670.34;5094517;27;20044;-51
2022/02/09 20:00:01;;;;;;;7.50;3.97;;;;;;;2.56;72.37;98676.34;5130651;27;20041;-53
2022/02/09 20:02:26;;;;;;;9.90;4.28;;;;;;;2.44;72.22;98657.78;5131913;27;20043;-53
2022/02/09 20:04:55;;;;;;;8.18;4.35;;;;;;;2.47;72.28;98668.00;5114070;27;20417;-49
2022/02/09 20:07:23;;;;;;;7.30;3.80;;;;;;;2.61;72.03;98681.44;5081738;27;20095;-53
2022/02/09 20:09:49;;;;;;;5.53;3.78;;;;;;;2.50;72.46;98680.78;5097642;27;20039;-51
2022/02/09 20:12:16;;;;;;;7.35;4.40;;;;;;;2.50;72.61;98679.06;5113241;27;20037;-50
2022/02/09 20:14:46;;;;;;;8.50;4.13;;;;;;;2.50;72.74;98679.06;5074935;27;20042;-52
2022/02/09 20:17:12;;;;;;;8.15;3.83;;;;;;;2.47;72.59;98680.81;5114277;27;20051;-50
2022/02/09 20:19:42;;;;;;;6.63;3.75;;;;;;;2.42;72.86;98682.63;5089058;27;20112;-49
2022/02/09 20:22:08;;;;;;;6.57;3.97;;;;;;;2.30;72.62;98650.38;5129954;27;20530;-51
2022/02/09 20:24:34;;;;;;;8.68;4.10;;;;;;;2.38;72.65;98676.72;5111290;27;20484;-54
2022/02/09 20:27:04;;;;;;;5.10;3.42;;;;;;;2.37;73.11;98667.31;5115508;27;20031;-51
2022/02/09 20:29:32;;;;;;;;;;;;;;;2.32;73.17;98676.81;5098074;27;20115;-53
2022/02/09 20:32:12;;;;;;;7.70;4.00;;;;;;;2.27;73.14;98665.78;5097388;27;19915;-49
2022/02/09 20:34:48;;;;;;;6.85;4.13;;;;;;;2.36;73.41;98662.19;5131608;27;20494;-50
2022/02/09 20:37:15;;;;;;;7.25;3.70;;;;;;;2.33;73.08;98659.72;5106958;27;20039;-52
2022/02/09 20:39:52;;;;;;;7.03;4.10;;;;;;;2.28;73.57;98659.78;5113455;27;20074;-51
2022/02/09 20:42:18;;;;;;;6.63;3.92;;;;;;;2.38;72.97;98657.91;5099305;27;20043;-51
2022/02/09 20:44:53;;;;;;;6.30;3.67;;;;;;;2.45;72.82;98672.31;5080965;27;20486;-50
2022/02/09 20:47:19;;;;;;;7.68;4.28;;;;;;;2.53;72.89;98662.75;5115434;27;20081;-53
2022/02/09 20:49:45;;;;;;;7.90;4.45;;;;;;;2.48;72.53;98657.72;5115325;27;20035;-51
2022/02/09 20:52:14;;;;;;;8.20;3.97;;;;;;;2.60;72.40;98666.06;5117714;27;20107;-54
2022/02/09 20:54:40;;;;;;;8.30;4.20;;;;;;;2.61;72.71;98666.03;5094850;27;20034;-56
2022/02/09 20:57:06;;;;;;;10.93;4.88;;;;;;;2.64;72.33;98675.38;5126233;27;20038;-51
2022/02/09 20:59:38;;;;;;;6.88;3.90;;;;;;;2.53;72.45;98667.88;5124020;27;20138;-53
2022/02/09 21:02:19;;;;;;;8.45;3.92;;;;;;;2.46;72.80;98672.28;5106213;27;20474;-49
2022/02/09 21:04:48;;;;;;;8.57;4.00;;;;;;;2.36;72.91;98654.50;5141692;27;20030;-51
2022/02/09 21:07:28;;;;;;;8.75;4.38;;;;;;;2.33;73.16;98670.81;5122850;27;20061;-53
2022/02/09 21:10:05;;;;;;;7.18;4.20;;;;;;;2.34;73.43;98671.66;5091100;27;20042;-51
2022/02/09 21:12:50;;;;;;;6.55;3.45;;;;;;;2.20;73.78;98648.81;5122508;27;20050;-57
2022/02/09 21:55:47;;;;;;;9.55;4.32;;;;;;;1.90;75.11;98669.84;5079930;27;20042;-51
2022/02/09 21:58:09;;;;;;;8.93;4.85;;;;;;;1.88;75.22;98667.31;5106355;28;20059;-50
2022/02/09 22:30:11;;;;;;;5.45;3.10;;;;;;;1.88;74.13;98641.69;5088847;27;20034;-52
2022/02/09 22:48:59;;;;;;;7.20;3.05;;;;;;;1.78;74.07;98637.56;5121246;27;20102;-50
2022/02/09 22:56:37;;;;;;;5.32;2.28;;;;;;;1.74;73.39;98638.47;5113920;28;20414;-54
2022/02/09 22:59:14;;;;;;;5.10;2.25;;;;;;;1.76;73.27;98647.00;5131692;27;20148;-51
2022/02/09 23:01:51;;;;;;;7.25;3.17;;;;;;;1.73;73.51;98656.47;5095082;27;20507;-50
2022/02/09 23:07:09;;;;;;;4.43;2.50;;;;;;;1.77;73.43;98646.13;5092937;28;20471;-50
2022/02/09 23:14:50;;;;;;;5.40;2.42;;;;;;;2.01;71.81;98647.44;5101407;28;20063;-50
